Time;durP1;ratioP1;P1;durP2;ratioP2;P2;SDS_P1;SDS_P2;PMS_P1;PMS_P2;Temp;Humidity;BMP_temperature;BMP_pressure;BME280_temperature;BME280_humidity;BME280_pressure;Samples;Min_cycle;Max_cycle;Signal;HPM_P1;HPM_P2
2024/01/19 00:00:10;;;;;;;6.43;3.70;;;1.50;99.90;;;;;;4993344;28;20342;-21
2024/01/19 00:02:36;;;;;;;6.20;3.40;;;1.50;99.90;;;;;;4990336;28;20034;-21
2024/01/19 00:05:03;;;;;;;5.95;3.38;;;1.50;99.90;;;;;;4975975;28;20057;-21
2024/01/19 00:07:29;;;;;;;4.38;2.70;;;1.60;99.90;;;;;;4976256;28;20038;-21
2024/01/19 00:09:55;;;;;;;4.90;3.07;;;1.50;99.90;;;;;;4991617;28;20098;-21
2024/01/19 00:12:21;;;;;;;4.55;2.83;;;1.60;99.90;;;;;;4971623;28;20030;-23
2024/01/19 00:14:47;;;;;;;4.50;2.67;;;1.60;99.90;;;;;;4972507;28;20081;-21
2024/01/19 00:17:12;;;;;;;4.50;2.43;;;1.60;99.90;;;;;;4989414;28;20182;-21
2024/01/19 00:19:38;;;;;;;5.72;2.58;;;1.60;99.90;;;;;;4992552;28;20102;-20
2024/01/19 00:22:04;;;;;;;4.20;2.60;;;1.60;99.90;;;;;;4990705;28;20066;-20
2024/01/19 00:24:30;;;;;;;3.63;2.53;;;1.70;99.90;;;;;;4988212;28;20038;-21
2024/01/19 00:26:56;;;;;;;3.80;2.20;;;1.70;99.90;;;;;;4990759;28;20149;-22
2024/01/19 00:29:22;;;;;;;3.83;2.40;;;1.80;99.90;;;;;;4992247;28;20038;-20
2024/01/19 00:31:48;;;;;;;5.50;2.63;;;-1.60;99.90;;;;;;4972560;28;20061;-18
2024/01/19 00:34:15;;;;;;;5.93;2.85;;;1.80;99.90;;;;;;4990706;28;20156;-19
2024/01/19 00:36:41;;;;;;;4.10;2.55;;;1.90;99.90;;;;;;4997085;28;20105;-19
2024/01/19 00:39:07;;;;;;;4.70;2.70;;;2.00;99.90;;;;;;4992216;28;20042;-18
2024/01/19 00:41:32;;;;;;;4.35;2.72;;;1.90;99.90;;;;;;4992176;28;20042;-18
2024/01/19 00:43:58;;;;;;;3.93;2.63;;;2.30;99.90;;;;;;4992202;28;20031;-18
2024/01/19 00:46:24;;;;;;;3.88;2.58;;;1.80;99.90;;;;;;4992551;28;20084;-18
2024/01/19 00:48:50;;;;;;;4.90;3.00;;;1.80;99.90;;;;;;4995275;28;20049;-19
2024/01/19 00:51:16;;;;;;;4.33;2.83;;;1.90;99.90;;;;;;4981937;28;20308;-19
2024/01/19 00:53:43;;;;;;;5.18;2.42;;;1.90;99.90;;;;;;4992988;28;20065;-20
2024/01/19 00:56:09;;;;;;;4.38;2.58;;;1.90;99.90;;;;;;4992959;28;20242;-19
2024/01/19 00:58:37;;;;;;;5.03;2.43;;;1.90;99.90;;;;;;4995421;28;20046;-19
2024/01/19 01:01:04;;;;;;;4.68;2.70;;;1.90;99.90;;;;;;4983654;28;20046;-21
2024/01/19 01:03:30;;;;;;;4.35;3.05;;;2.00;99.90;;;;;;4973353;28;20046;-19
2024/01/19 01:05:57;;;;;;;4.15;2.65;;;1.90;99.90;;;;;;4975390;28;20304;-19
2024/01/19 01:08:30;;;;;;;4.40;2.60;;;1.30;99.90;;;;;;4993956;28;20069;-18
2024/01/19 01:10:56;;;;;;;4.37;2.70;;;4.60;99.90;;;;;;4992020;28;20045;-19
2024/01/19 01:13:22;;;;;;;4.50;2.88;;;1.90;99.90;;;;;;4993185;28;20094;-19
2024/01/19 01:15:48;;;;;;;4.60;2.58;;;1.90;99.90;;;;;;4947045;28;20034;-19
2024/01/19 01:18:14;;;;;;;4.05;2.45;;;1.90;99.90;;;;;;4976953;28;20097;-19
2024/01/19 01:20:40;;;;;;;3.93;2.57;;;1.90;99.90;;;;;;4991918;28;20346;-19
2024/01/19 01:23:05;;;;;;;4.80;2.45;;;1.80;99.90;;;;;;4991157;28;20041;-20
2024/01/19 01:25:33;;;;;;;3.83;2.50;;;1.80;99.90;;;;;;4981830;28;20109;-20
2024/01/19 01:27:59;;;;;;;4.17;2.47;;;1.80;99.90;;;;;;4979338;28;20046;-21
2024/01/19 01:30:25;;;;;;;5.00;2.97;;;1.70;99.90;;;;;;4988448;28;20813;-19
2024/01/19 01:32:50;;;;;;;4.20;2.60;;;1.70;99.90;;;;;;4979697;28;20060;-20
2024/01/19 01:35:16;;;;;;;4.35;2.67;;;1.70;99.90;;;;;;4995259;28;20030;-20
2024/01/19 01:37:42;;;;;;;4.47;2.87;;;1.60;99.90;;;;;;4993152;28;20223;-19
2024/01/19 01:40:08;;;;;;;3.35;2.35;;;1.60;99.90;;;;;;4989531;28;20042;-21
2024/01/19 01:42:34;;;;;;;3.50;2.23;;;1.60;99.90;;;;;;4992252;28;20089;-20
2024/01/19 01:45:00;;;;;;;4.22;2.38;;;1.60;99.90;;;;;;4989392;28;20216;-20
2024/01/19 01:47:26;;;;;;;5.15;3.00;;;1.50;99.90;;;;;;4974705;28;20058;-19
2024/01/19 01:49:54;;;;;;;7.30;3.38;;;1.50;99.90;;;;;;4990818;28;20120;-22
2024/01/19 01:52:20;;;;;;;3.50;2.35;;;1.70;99.90;;;;;;4992009;28;20050;-22
2024/01/19 01:54:46;;;;;;;4.07;2.47;;;1.50;99.90;;;;;;4991680;28;20045;-21
2024/01/19 01:57:14;;;;;;;5.18;3.10;;;1.40;99.90;;;;;;4991873;28;20034;-22
2024/01/19 01:59:40;;;;;;;3.92;2.40;;;1.50;99.90;;;;;;4992185;28;20097;-22
2024/01/19 02:02:06;;;;;;;4.43;2.70;;;1.40;99.90;;;;;;4992481;28;20026;-21
2024/01/19 02:04:33;;;;;;;3.67;2.57;;;1.40;99.90;;;;;;4993527;28;20246;-22
2024/01/19 02:06:59;;;;;;;4.93;2.67;;;1.40;99.90;;;;;;4995259;28;20050;-24
2024/01/19 02:09:25;;;;;;;6.13;3.00;;;1.40;99.90;;;;;;4990466;28;20061;-22
2024/01/19 02:11:52;;;;;;;3.67;2.40;;;1.40;99.90;;;;;;4993875;28;20249;-22
2024/01/19 02:14:18;;;;;;;4.45;2.90;;;1.40;99.90;;;;;;4990610;28;20047;-24
2024/01/19 02:16:43;;;;;;;3.70;2.60;;;1.30;99.90;;;;;;4994076;28;20049;-21
2024/01/19 02:19:09;;;;;;;5.07;2.73;;;1.30;99.90;;;;;;4992185;28;20134;-22
2024/01/19 02:21:35;;;;;;;4.28;2.47;;;1.30;99.90;;;;;;4990283;28;20067;-22
2024/01/19 02:24:06;;;;;;;4.88;3.03;;;1.30;99.90;;;;;;4978278;28;20571;-21
2024/01/19 02:26:34;;;;;;;3.73;2.23;;;1.30;99.90;;;;;;4991681;28;20034;-23
2024/01/19 02:29:00;;;;;;;3.70;2.33;;;3.40;99.90;;;;;;4988575;28;20034;-24
2024/01/19 02:31:26;;;;;;;4.15;2.65;;;1.20;99.90;;;;;;4991498;28;20033;-22
2024/01/19 02:33:52;;;;;;;3.50;2.35;;;1.20;99.90;;;;;;4985048;28;20054;-22
2024/01/19 02:36:18;;;;;;;5.60;3.13;;;1.10;99.90;;;;;;4990948;28;20246;-22
2024/01/19 02:38:44;;;;;;;5.05;2.80;;;1.20;99.90;;;;;;4989175;28;20513;-23
2024/01/19 02:41:09;;;;;;;4.27;2.43;;;1.10;99.90;;;;;;4976695;28;20092;-24
2024/01/19 02:43:35;;;;;;;4.25;2.45;;;1.10;99.90;;;;;;4993421;28;20331;-24
2024/01/19 02:46:01;;;;;;;3.70;2.40;;;1.10;99.90;;;;;;4990803;28;20109;-22
2024/01/19 02:48:27;;;;;;;4.47;2.70;;;1.10;99.90;;;;;;4990637;28;20070;-22
2024/01/19 02:50:53;;;;;;;3.60;2.35;;;1.10;99.90;;;;;;4990566;28;20053;-25
2024/01/19 02:53:19;;;;;;;5.20;2.70;;;1.10;99.90;;;;;;4991731;28;20315;-22
2024/01/19 02:55:45;;;;;;;4.27;2.63;;;1.10;99.90;;;;;;4975455;28;20556;-24
2024/01/19 02:58:11;;;;;;;4.43;2.10;;;1.10;99.90;;;;;;4974639;28;20329;-22
2024/01/19 03:00:36;;;;;;;4.85;2.50;;;1.10;99.90;;;;;;4990704;28;20031;-22
2024/01/19 03:03:02;;;;;;;4.93;2.40;;;1.00;99.90;;;;;;4991573;28;20076;-22
2024/01/19 03:05:28;;;;;;;4.97;2.60;;;1.00;99.90;;;;;;4992726;28;20042;-23
2024/01/19 03:07:53;;;;;;;4.70;2.20;;;1.00;99.90;;;;;;4991413;28;20023;-22
2024/01/19 03:10:19;;;;;;;5.43;2.97;;;-0.90;99.90;;;;;;4988338;28;20061;-21
2024/01/19 03:12:45;;;;;;;4.30;2.57;;;2.80;99.90;;;;;;4990768;28;20034;-22
2024/01/19 03:15:11;;;;;;;3.92;2.40;;;1.00;99.90;;;;;;4989665;28;20030;-22
2024/01/19 03:17:37;;;;;;;4.90;2.50;;;1.20;99.90;;;;;;4990569;28;20338;-23
2024/01/19 03:20:05;;;;;;;5.40;3.03;;;1.00;99.90;;;;;;4990739;28;20142;-21
2024/01/19 03:22:31;;;;;;;4.63;2.45;;;0.90;99.90;;;;;;4990526;28;20112;-23
2024/01/19 03:24:57;;;;;;;4.63;2.23;;;0.90;99.90;;;;;;4991165;28;20366;-20
2024/01/19 03:27:22;;;;;;;5.05;2.40;;;0.90;99.90;;;;;;4990502;28;20393;-20
2024/01/19 03:29:48;;;;;;;4.87;2.57;;;0.90;99.90;;;;;;4988242;28;20066;-20
2024/01/19 03:32:14;;;;;;;5.00;3.13;;;0.90;99.90;;;;;;4989675;28;20224;-20
2024/01/19 03:34:40;;;;;;;5.10;2.53;;;0.90;99.90;;;;;;4990749;28;20296;-20
2024/01/19 03:37:06;;;;;;;4.45;2.38;;;0.90;99.90;;;;;;4988998;28;20761;-19
2024/01/19 03:39:33;;;;;;;4.35;2.40;;;0.90;99.90;;;;;;4990348;28;20073;-21
2024/01/19 03:42:00;;;;;;;5.78;2.80;;;0.90;99.90;;;;;;4991433;28;20127;-20
2024/01/19 03:44:26;;;;;;;4.75;2.65;;;0.90;99.90;;;;;;4970595;28;20038;-20
2024/01/19 03:46:52;;;;;;;5.17;2.70;;;0.80;99.90;;;;;;4992318;28;20050;-19
2024/01/19 03:49:19;;;;;;;3.97;2.25;;;0.80;99.90;;;;;;4990794;28;20314;-22
2024/01/19 03:52:05;;;;;;;4.57;2.35;;;0.80;99.90;;;;;;4971482;28;20065;-19
2024/01/19 03:54:34;;;;;;;4.40;2.50;;;0.80;99.90;;;;;;4968950;28;20295;-24
2024/01/19 03:57:02;;;;;;;4.57;2.60;;;0.80;99.90;;;;;;4991075;28;20465;-19
2024/01/19 03:59:28;;;;;;;4.37;2.43;;;0.80;99.90;;;;;;4970323;28;20100;-20
2024/01/19 04:01:55;;;;;;;5.63;2.58;;;0.80;99.90;;;;;;4986921;28;20251;-20
2024/01/19 04:04:22;;;;;;;5.28;2.83;;;0.80;99.90;;;;;;4988206;28;20115;-20
2024/01/19 04:06:48;;;;;;;6.05;3.17;;;0.80;99.90;;;;;;4992005;28;20062;-19
2024/01/19 04:09:16;;;;;;;5.37;2.80;;;0.80;99.90;;;;;;4986806;28;20046;-19
2024/01/19 04:11:43;;;;;;;5.20;3.05;;;0.70;99.90;;;;;;4994226;28;20060;-19
2024/01/19 04:14:09;;;;;;;5.22;2.85;;;0.70;99.90;;;;;;4994909;28;20306;-21
2024/01/19 04:16:35;;;;;;;4.78;2.90;;;0.80;99.90;;;;;;4976587;28;20049;-23
2024/01/19 04:19:03;;;;;;;5.90;3.07;;;0.70;99.90;;;;;;4994444;28;20390;-21
2024/01/19 04:21:29;;;;;;;4.97;2.70;;;0.70;99.90;;;;;;4996512;28;20243;-21
2024/01/19 04:23:56;;;;;;;5.20;2.55;;;0.70;99.90;;;;;;4976763;28;20057;-23
2024/01/19 04:26:21;;;;;;;5.15;2.92;;;0.70;99.90;;;;;;4996391;28;20355;-21
2024/01/19 04:28:47;;;;;;;5.20;2.58;;;0.70;99.90;;;;;;4993497;28;20050;-21
2024/01/19 04:31:13;;;;;;;5.23;2.97;;;0.70;99.90;;;;;;4994060;28;20742;-21
2024/01/19 04:33:38;;;;;;;6.97;3.10;;;0.70;99.90;;;;;;4980335;28;20274;-21
2024/01/19 04:36:04;;;;;;;4.75;2.55;;;0.70;99.90;;;;;;4992301;28;20050;-21
2024/01/19 04:38:30;;;;;;;5.50;2.97;;;0.60;99.90;;;;;;4992776;28;20424;-21
2024/01/19 04:40:56;;;;;;;4.93;2.75;;;0.70;99.90;;;;;;4980004;28;20281;-21
2024/01/19 04:43:21;;;;;;;4.60;2.60;;;0.50;99.90;;;;;;4994876;28;20311;-21
2024/01/19 04:45:47;;;;;;;7.22;2.95;;;0.60;99.90;;;;;;4976237;28;20454;-19
2024/01/19 04:48:13;;;;;;;5.23;2.43;;;0.60;99.90;;;;;;4991814;28;20101;-19
2024/01/19 04:50:39;;;;;;;6.10;3.28;;;0.60;99.90;;;;;;4991765;28;20369;-22
2024/01/19 04:53:05;;;;;;;7.95;3.72;;;0.60;99.90;;;;;;4993438;28;20622;-20
2024/01/19 04:55:30;;;;;;;4.83;2.67;;;0.60;99.90;;;;;;4978538;28;20043;-21
2024/01/19 04:57:56;;;;;;;6.18;3.03;;;0.60;99.90;;;;;;4988837;28;20319;-20
2024/01/19 05:00:22;;;;;;;6.18;3.75;;;0.60;99.90;;;;;;4996789;28;20042;-21
2024/01/19 05:02:48;;;;;;;8.40;4.00;;;0.60;99.90;;;;;;4993588;28;20106;-21
2024/01/19 05:05:14;;;;;;;6.28;3.17;;;0.50;99.90;;;;;;4993496;28;20048;-21
2024/01/19 05:07:40;;;;;;;5.97;3.38;;;0.50;99.90;;;;;;4961699;28;20321;-21
2024/01/19 05:10:07;;;;;;;6.20;3.10;;;0.50;99.90;;;;;;4992289;28;20027;-20
2024/01/19 05:12:33;;;;;;;6.05;3.00;;;0.50;99.90;;;;;;4997198;28;20037;-21
2024/01/19 05:14:59;;;;;;;7.43;3.67;;;0.50;99.90;;;;;;4994398;28;20038;-20
2024/01/19 05:17:24;;;;;;;5.67;2.67;;;0.50;99.90;;;;;;4990618;28;20123;-21
2024/01/19 05:19:50;;;;;;;6.40;3.53;;;0.50;99.90;;;;;;4992999;28;20031;-20
2024/01/19 05:22:16;;;;;;;4.72;2.78;;;0.50;99.90;;;;;;4983199;28;20058;-20
2024/01/19 05:24:42;;;;;;;6.10;2.80;;;0.50;99.90;;;;;;4993634;28;20034;-20
2024/01/19 05:27:08;;;;;;;6.28;3.33;;;0.50;99.90;;;;;;4993012;28;20034;-20
2024/01/19 05:29:34;;;;;;;5.82;3.00;;;0.50;99.90;;;;;;4960662;28;20142;-20
2024/01/19 05:32:01;;;;;;;5.50;2.97;;;0.50;99.90;;;;;;4989244;28;20039;-20
2024/01/19 05:34:26;;;;;;;5.40;3.17;;;0.50;99.90;;;;;;4988948;28;20042;-20
2024/01/19 05:36:52;;;;;;;4.75;2.60;;;0.50;99.90;;;;;;4992123;28;20258;-20
2024/01/19 05:39:18;;;;;;;6.23;2.97;;;0.60;99.90;;;;;;4978651;28;20153;-20
2024/01/19 05:41:43;;;;;;;5.63;2.92;;;0.50;99.90;;;;;;4991777;28;20042;-21
2024/01/19 05:44:09;;;;;;;6.00;3.07;;;0.50;99.90;;;;;;4993403;28;20037;-19
2024/01/19 05:46:34;;;;;;;6.25;3.05;;;0.50;99.90;;;;;;4975270;28;20077;-19
2024/01/19 05:49:00;;;;;;;5.87;3.33;;;0.50;99.90;;;;;;4990636;28;20034;-19
2024/01/19 05:51:26;;;;;;;8.38;3.75;;;-1.10;99.90;;;;;;4994515;28;20101;-20
2024/01/19 05:53:52;;;;;;;9.47;4.00;;;0.50;99.90;;;;;;4985458;28;20062;-19
2024/01/19 05:56:17;;;;;;;8.17;4.30;;;0.50;99.90;;;;;;4993873;28;20161;-20
2024/01/19 05:58:44;;;;;;;7.30;3.63;;;0.50;99.90;;;;;;4991458;28;20273;-20
2024/01/19 06:01:10;;;;;;;8.77;3.70;;;0.50;99.90;;;;;;4992569;28;20262;-20
2024/01/19 06:03:35;;;;;;;5.82;3.10;;;0.50;99.90;;;;;;4991229;28;20073;-20
2024/01/19 06:06:05;;;;;;;5.97;3.53;;;0.50;99.90;;;;;;4992817;28;20334;-19
2024/01/19 06:08:31;;;;;;;6.47;3.17;;;0.50;99.90;;;;;;4993694;28;20222;-19
2024/01/19 06:10:57;;;;;;;5.43;2.85;;;0.40;99.90;;;;;;4994114;28;20030;-20
2024/01/19 06:13:23;;;;;;;6.07;3.17;;;0.40;99.90;;;;;;4995384;28;20061;-19
2024/01/19 06:15:49;;;;;;;6.30;3.30;;;0.40;99.90;;;;;;4992599;28;20034;-19
2024/01/19 06:18:15;;;;;;;6.22;3.35;;;0.40;99.90;;;;;;4993918;28;20110;-21
2024/01/19 06:20:41;;;;;;;6.10;3.27;;;0.40;99.90;;;;;;4978331;28;20049;-20
2024/01/19 06:23:08;;;;;;;8.35;3.97;;;0.40;99.90;;;;;;4981314;28;20100;-19
2024/01/19 06:25:35;;;;;;;6.05;3.10;;;0.50;99.90;;;;;;4995340;28;20038;-19
2024/01/19 06:28:02;;;;;;;5.97;3.40;;;0.40;99.90;;;;;;4994324;28;20022;-19
2024/01/19 06:30:28;;;;;;;6.10;3.45;;;0.40;99.90;;;;;;4996686;28;20030;-18
2024/01/19 06:32:53;;;;;;;5.70;2.97;;;0.40;99.90;;;;;;4992720;28;20086;-18
2024/01/19 06:35:19;;;;;;;6.18;2.92;;;0.40;99.90;;;;;;4992803;28;20034;-19
2024/01/19 06:37:45;;;;;;;6.00;3.20;;;0.40;99.90;;;;;;4990481;28;20046;-20
2024/01/19 06:40:10;;;;;;;6.22;3.25;;;0.50;99.90;;;;;;4976972;28;20207;-19
2024/01/19 06:42:39;;;;;;;6.43;3.43;;;0.40;99.90;;;;;;4994894;28;20073;-19
2024/01/19 06:45:05;;;;;;;7.45;3.45;;;0.50;99.90;;;;;;4991721;28;20233;-19
2024/01/19 06:47:31;;;;;;;5.93;3.58;;;0.40;99.90;;;;;;4986991;28;20056;-20
2024/01/19 06:49:57;;;;;;;5.90;2.88;;;0.50;99.90;;;;;;4996154;28;20054;-20
2024/01/19 06:52:23;;;;;;;7.67;3.83;;;0.50;99.90;;;;;;4975891;28;20101;-19
2024/01/19 06:54:49;;;;;;;6.43;3.28;;;;;;;;;;4961208;28;20088;-21
2024/01/19 06:57:15;;;;;;;7.57;3.50;;;0.50;99.90;;;;;;4987722;28;20046;-20
2024/01/19 06:59:41;;;;;;;7.90;3.77;;;0.50;99.90;;;;;;4989037;28;20081;-20
2024/01/19 07:02:07;;;;;;;7.72;4.07;;;0.30;99.90;;;;;;4988307;28;20545;-20
2024/01/19 07:04:33;;;;;;;6.60;3.72;;;0.50;99.90;;;;;;4972696;28;20053;-19
2024/01/19 07:06:58;;;;;;;6.93;3.23;;;0.50;99.90;;;;;;4990752;28;20287;-22
2024/01/19 07:09:26;;;;;;;7.07;3.72;;;0.50;99.90;;;;;;4991518;28;20240;-21
2024/01/19 07:11:53;;;;;;;6.33;3.23;;;0.50;99.90;;;;;;4976490;28;20144;-20
2024/01/19 07:14:19;;;;;;;6.03;3.28;;;0.50;99.90;;;;;;4986094;28;20046;-19
2024/01/19 07:16:44;;;;;;;6.90;3.75;;;0.50;99.90;;;;;;4979743;28;20050;-20
2024/01/19 07:19:10;;;;;;;7.90;3.87;;;0.50;99.90;;;;;;4987206;28;20316;-20
2024/01/19 07:21:40;;;;;;;8.68;3.67;;;0.50;99.90;;;;;;4988847;28;20038;-20
2024/01/19 07:24:10;;;;;;;7.90;3.47;;;3.00;99.90;;;;;;4986867;28;20046;-20
2024/01/19 07:26:38;;;;;;;6.35;3.40;;;-2.20;99.90;;;;;;4975360;28;20046;-19
2024/01/19 07:29:06;;;;;;;8.32;3.60;;;-1.80;99.90;;;;;;4974567;28;20105;-20
2024/01/19 07:31:38;;;;;;;6.23;3.40;;;0.50;99.90;;;;;;4988848;28;20034;-20
2024/01/19 07:34:04;;;;;;;6.82;3.75;;;0.50;99.90;;;;;;4972765;28;20046;-20
2024/01/19 07:36:31;;;;;;;6.32;2.97;;;0.50;99.90;;;;;;4968047;28;20018;-20
2024/01/19 07:38:56;;;;;;;6.47;3.28;;;0.50;99.90;;;;;;4986389;28;20066;-21
2024/01/19 07:41:22;;;;;;;8.20;3.90;;;0.50;99.90;;;;;;4989110;28;20089;-20
2024/01/19 07:43:48;;;;;;;6.53;3.55;;;0.50;99.90;;;;;;4989602;28;20048;-20
2024/01/19 07:46:16;;;;;;;6.13;3.77;;;0.50;99.90;;;;;;4985010;28;20038;-19
2024/01/19 07:48:42;;;;;;;7.22;3.30;;;0.50;99.90;;;;;;4985967;28;20050;-22
2024/01/19 07:51:08;;;;;;;6.03;3.03;;;0.50;99.90;;;;;;4976583;28;20044;-21
2024/01/19 07:53:34;;;;;;;6.43;3.40;;;0.50;99.90;;;;;;4971546;28;20220;-20
2024/01/19 07:56:00;;;;;;;5.78;3.30;;;0.50;99.90;;;;;;4978506;28;20322;-20
2024/01/19 07:58:26;;;;;;;8.27;4.07;;;0.50;99.90;;;;;;4987857;28;20042;-19
2024/01/19 08:00:51;;;;;;;8.23;3.55;;;0.50;99.90;;;;;;4988609;28;20273;-19
2024/01/19 08:03:18;;;;;;;9.60;4.20;;;0.50;99.90;;;;;;4974085;28;20030;-19
2024/01/19 08:05:44;;;;;;;5.53;2.88;;;0.50;99.90;;;;;;4985036;28;20391;-20
2024/01/19 08:08:10;;;;;;;6.97;3.60;;;0.50;99.90;;;;;;4988610;28;20037;-20
2024/01/19 08:10:36;;;;;;;6.93;3.55;;;0.60;99.90;;;;;;4959240;28;20066;-19
2024/01/19 08:13:02;;;;;;;8.05;4.05;;;0.60;99.90;;;;;;4969841;28;20462;-19
2024/01/19 08:15:28;;;;;;;7.47;3.20;;;0.60;99.90;;;;;;4988363;28;20484;-19
2024/01/19 08:17:55;;;;;;;6.40;3.55;;;0.70;99.90;;;;;;4989864;28;20034;-19
2024/01/19 08:20:21;;;;;;;7.13;3.55;;;0.70;99.90;;;;;;4988005;28;20097;-19
2024/01/19 08:22:48;;;;;;;6.82;3.80;;;0.80;99.90;;;;;;4972960;28;20030;-20
2024/01/19 08:25:14;;;;;;;8.77;4.40;;;0.80;99.90;;;;;;4984896;28;20042;-19
2024/01/19 08:27:43;;;;;;;7.70;3.60;;;0.90;99.90;;;;;;4978264;28;20097;-18
2024/01/19 08:30:10;;;;;;;7.93;4.38;;;0.90;99.90;;;;;;4991894;28;20373;-19
2024/01/19 08:32:36;;;;;;;8.40;3.85;;;0.90;99.90;;;;;;4989046;28;20053;-19
2024/01/19 08:35:08;;;;;;;7.78;4.18;;;1.00;99.90;;;;;;4984291;28;20045;-18
2024/01/19 08:37:38;;;;;;;8.60;4.65;;;1.00;99.90;;;;;;4978974;28;20085;-19
2024/01/19 08:40:11;;;;;;;9.27;4.10;;;1.10;99.90;;;;;;4984329;28;20276;-18
2024/01/19 08:42:38;;;;;;;9.48;4.63;;;1.10;99.90;;;;;;4983453;28;20026;-19
2024/01/19 08:45:05;;;;;;;8.68;4.13;;;1.20;99.90;;;;;;4980887;28;20261;-20
2024/01/19 08:47:30;;;;;;;10.55;5.03;;;1.30;99.90;;;;;;4987774;28;20401;-19
2024/01/19 08:49:56;;;;;;;12.30;5.57;;;1.40;99.90;;;;;;4989988;28;20058;-19
2024/01/19 08:52:22;;;;;;;9.48;4.28;;;1.50;99.90;;;;;;4985271;28;20038;-19
2024/01/19 08:54:48;;;;;;;11.53;5.37;;;1.60;99.90;;;;;;4986093;28;20346;-19
2024/01/19 08:57:14;;;;;;;11.65;5.55;;;1.70;99.90;;;;;;4988735;28;20054;-18
2024/01/19 08:59:40;;;;;;;8.77;4.53;;;1.80;99.90;;;;;;4995318;28;20030;-19
2024/01/19 09:02:07;;;;;;;11.90;5.75;;;2.00;99.90;;;;;;4992888;28;20081;-19
2024/01/19 09:04:34;;;;;;;9.17;5.03;;;-0.10;99.90;;;;;;4987756;28;20219;-19
2024/01/19 09:07:00;;;;;;;10.20;4.53;;;2.10;99.90;;;;;;4972956;28;20049;-19
2024/01/19 09:09:26;;;;;;;8.75;4.32;;;2.30;99.90;;;;;;4991071;28;20058;-20
2024/01/19 09:11:52;;;;;;;10.75;4.70;;;2.30;99.90;;;;;;4990603;28;20353;-23
2024/01/19 09:14:20;;;;;;;12.13;5.43;;;2.10;99.90;;;;;;4991365;28;20065;-21
2024/01/19 09:16:45;;;;;;;11.35;5.03;;;2.50;99.90;;;;;;4991313;28;20030;-20
2024/01/19 09:19:12;;;;;;;10.65;4.78;;;2.50;99.90;;;;;;4989646;28;20041;-20
2024/01/19 09:21:44;;;;;;;10.30;4.97;;;2.60;99.90;;;;;;4994036;28;20050;-20
2024/01/19 09:24:11;;;;;;;10.43;4.80;;;2.70;99.90;;;;;;4977581;28;20050;-19
2024/01/19 09:26:37;;;;;;;11.57;5.45;;;2.70;99.90;;;;;;4989647;28;20239;-20
2024/01/19 09:29:03;;;;;;;13.32;6.15;;;2.80;99.90;;;;;;4989940;28;20034;-19
2024/01/19 09:31:29;;;;;;;14.30;6.28;;;2.90;99.90;;;;;;4978030;28;20049;-20
2024/01/19 09:33:55;;;;;;;12.40;5.90;;;3.00;99.90;;;;;;4990338;28;20069;-22
2024/01/19 09:36:20;;;;;;;9.98;4.80;;;3.00;99.90;;;;;;4973595;28;20493;-20
2024/01/19 09:38:46;;;;;;;10.07;5.17;;;3.10;99.90;;;;;;4959732;28;20359;-20
2024/01/19 09:41:26;;;;;;;10.47;5.10;;;3.20;99.90;;;;;;4993030;28;20041;-20
2024/01/19 09:43:55;;;;;;;11.93;4.83;;;3.40;99.90;;;;;;4989647;28;20289;-20
2024/01/19 09:46:28;;;;;;;9.27;4.70;;;3.60;99.90;;;;;;4990592;28;20042;-21
2024/01/19 09:49:13;;;;;;;11.25;5.40;;;3.90;99.90;;;;;;4987046;28;20257;-19
2024/01/19 09:52:00;;;;;;;11.35;5.45;;;4.30;99.90;;;;;;4976381;28;20026;-20
2024/01/19 09:54:33;;;;;;;10.65;5.05;;;5.60;99.90;;;;;;4987941;28;20026;-20
2024/01/19 09:57:00;;;;;;;11.87;5.80;;;5.10;99.90;;;;;;4986862;28;20621;-21
2024/01/19 09:59:33;;;;;;;13.55;5.50;;;5.50;99.90;;;;;;4991448;28;20239;-22
2024/01/19 10:02:00;;;;;;;32.55;5.32;;;5.90;99.90;;;;;;4991664;28;20050;-21
2024/01/19 10:04:27;;;;;;;12.60;5.10;;;6.40;99.90;;;;;;4970720;28;20034;-22
2024/01/19 10:06:54;;;;;;;11.75;5.45;;;6.70;99.90;;;;;;4975109;28;20089;-22
2024/01/19 10:09:20;;;;;;;8.33;4.60;;;7.10;99.90;;;;;;4989740;28;20038;-22
2024/01/19 10:11:52;;;;;;;8.38;4.82;;;7.50;99.90;;;;;;4986357;28;20100;-25
2024/01/19 10:14:18;;;;;;;7.95;4.93;;;7.80;99.90;;;;;;4976223;28;20042;-22
2024/01/19 10:16:44;;;;;;;10.15;5.82;;;8.20;99.90;;;;;;4977284;28;20045;-24
2024/01/19 10:19:14;;;;;;;10.63;5.90;;;8.40;99.90;;;;;;4988445;28;20377;-22
2024/01/19 10:21:40;;;;;;;9.45;5.32;;;8.60;99.90;;;;;;4989336;28;20178;-22
2024/01/19 10:24:11;;;;;;;8.48;4.90;;;8.90;99.90;;;;;;4987430;28;20066;-24
2024/01/19 10:26:37;;;;;;;10.23;5.22;;;9.10;99.90;;;;;;4992462;28;20056;-21
2024/01/19 10:29:16;;;;;;;9.40;5.07;;;9.30;99.90;;;;;;4970788;28;20073;-21
2024/01/19 10:31:45;;;;;;;8.20;4.68;;;9.60;99.90;;;;;;4973430;28;20234;-20
2024/01/19 10:34:22;;;;;;;8.88;4.90;;;9.80;99.90;;;;;;4989720;28;20044;-20
2024/01/19 10:36:49;;;;;;;8.02;4.82;;;9.90;99.90;;;;;;4992312;28;20106;-20
2024/01/19 10:39:29;;;;;;;9.40;4.85;;;10.20;99.90;;;;;;4992269;28;20034;-19
2024/01/19 10:42:06;;;;;;;7.90;4.97;;;10.40;99.90;;;;;;4992179;28;20260;-20
2024/01/19 10:44:32;;;;;;;8.57;4.97;;;10.60;99.90;;;;;;4988796;28;20034;-21
2024/01/19 10:46:58;;;;;;;8.45;5.45;;;10.80;99.90;;;;;;4990653;28;20038;-21
2024/01/19 10:49:24;;;;;;;8.13;5.07;;;11.00;99.90;;;;;;4989664;28;20054;-22
2024/01/19 10:51:50;;;;;;;7.83;4.73;;;11.20;99.90;;;;;;4987160;28;20462;-23
2024/01/19 10:54:27;;;;;;;7.50;4.43;;;11.40;99.90;;;;;;4976976;28;20282;-23
2024/01/19 10:57:08;;;;;;;9.68;5.38;;;11.60;99.90;;;;;;4986877;28;20042;-21
2024/01/19 10:59:35;;;;;;;7.60;4.93;;;11.80;99.90;;;;;;4986655;28;20405;-21
2024/01/19 11:02:02;;;;;;;8.27;5.07;;;12.00;99.90;;;;;;4987157;28;20025;-22
2024/01/19 11:04:28;;;;;;;7.72;4.70;;;12.20;99.90;;;;;;4985779;28;20081;-21
2024/01/19 11:06:54;;;;;;;7.45;5.00;;;12.30;99.90;;;;;;4980760;28;20243;-22
2024/01/19 11:09:21;;;;;;;7.87;5.33;;;12.50;99.90;;;;;;4988299;28;20034;-23
2024/01/19 11:11:53;;;;;;;8.60;5.50;;;12.70;99.90;;;;;;4986000;28;20311;-23
2024/01/19 11:14:23;;;;;;;7.28;4.93;;;12.90;99.90;;;;;;4988457;28;20034;-22
2024/01/19 11:16:51;;;;;;;8.40;5.20;;;13.10;99.90;;;;;;4991697;28;20411;-24
2024/01/19 11:19:18;;;;;;;7.47;5.25;;;13.20;99.90;;;;;;4986722;28;20044;-22
2024/01/19 11:21:44;;;;;;;7.47;5.00;;;13.40;99.90;;;;;;4986509;28;20311;-21
2024/01/19 11:24:14;;;;;;;8.77;5.80;;;13.60;99.90;;;;;;4987664;28;20088;-22
2024/01/19 11:26:48;;;;;;;9.38;6.03;;;13.70;99.90;;;;;;4989641;28;20100;-21
2024/01/19 11:29:25;;;;;;;9.32;5.85;;;14.00;99.90;;;;;;4987445;28;20035;-22
2024/01/19 11:31:51;;;;;;;9.30;6.07;;;14.20;99.90;;;;;;4984707;28;20050;-21
2024/01/19 11:34:46;;;;;;;7.82;5.22;;;14.40;99.90;;;;;;4985152;28;20041;-23
2024/01/19 11:37:46;;;;;;;8.43;5.60;;;14.60;99.90;;;;;;4989317;28;20104;-20
2024/01/19 11:40:24;;;;;;;7.68;5.07;;;14.60;99.90;;;;;;4989258;28;20091;-21
2024/01/19 11:42:50;;;;;;;8.02;5.40;;;14.60;99.90;;;;;;4991116;28;20038;-19
2024/01/19 11:45:43;;;;;;;7.63;5.07;;;14.60;99.90;;;;;;4977605;28;20079;-20
2024/01/19 11:48:38;;;;;;;9.02;5.70;;;14.70;99.90;;;;;;4965742;28;20105;-20
2024/01/19 11:51:04;;;;;;;7.73;4.70;;;14.80;99.90;;;;;;4987082;28;20062;-20
2024/01/19 11:53:59;;;;;;;7.57;5.10;;;14.90;99.90;;;;;;4988414;28;20085;-20
2024/01/19 11:56:25;;;;;;;7.90;5.10;;;14.90;99.90;;;;;;4985932;28;20034;-23
2024/01/19 11:58:51;;;;;;;7.07;4.97;;;14.90;99.90;;;;;;4978675;28;20124;-23
2024/01/19 12:01:17;;;;;;;7.03;4.57;;;14.90;99.90;;;;;;4987223;28;20130;-21
2024/01/19 12:03:43;;;;;;;8.25;4.80;;;14.90;99.90;;;;;;4972904;28;20037;-22
2024/01/19 12:06:09;;;;;;;7.00;4.47;;;14.90;99.90;;;;;;4976155;28;20042;-21
2024/01/19 12:08:35;;;;;;;6.35;4.32;;;14.80;99.90;;;;;;4992128;28;20097;-24
2024/01/19 12:11:07;;;;;;;7.47;4.30;;;14.80;99.90;;;;;;4988232;28;20071;-22
2024/01/19 12:13:40;;;;;;;7.15;4.00;;;14.70;99.90;;;;;;4987481;28;20026;-21
2024/01/19 12:16:07;;;;;;;6.20;4.10;;;14.50;99.90;;;;;;4988847;28;20119;-21
2024/01/19 12:18:35;;;;;;;6.28;4.00;;;14.50;99.90;;;;;;4986299;28;20422;-21
2024/01/19 12:21:01;;;;;;;7.87;4.50;;;14.50;99.90;;;;;;4987658;28;20042;-21
2024/01/19 12:23:32;;;;;;;6.28;3.70;;;14.40;99.90;;;;;;4977037;28;20208;-22
2024/01/19 12:26:00;;;;;;;5.95;3.90;;;14.30;99.90;;;;;;4993911;28;20038;-23
2024/01/19 12:28:27;;;;;;;6.53;4.43;;;14.20;99.90;;;;;;4955644;28;20054;-22
2024/01/19 12:30:53;;;;;;;7.32;4.60;;;14.00;99.90;;;;;;4976417;28;20134;-22
2024/01/19 12:33:21;;;;;;;6.57;4.07;;;13.70;99.90;;;;;;4989769;28;20093;-21
2024/01/19 12:35:47;;;;;;;6.80;3.88;;;13.50;99.90;;;;;;4991272;28;20038;-22
2024/01/19 12:38:16;;;;;;;7.75;4.65;;;13.30;99.90;;;;;;4990890;28;20034;-21
2024/01/19 12:40:43;;;;;;;6.57;4.47;;;13.00;99.90;;;;;;4959111;28;20026;-22
2024/01/19 12:43:09;;;;;;;7.70;4.57;;;12.80;99.90;;;;;;4971522;28;20062;-21
2024/01/19 12:45:35;;;;;;;6.93;4.70;;;12.70;99.90;;;;;;4993603;28;20080;-20
2024/01/19 12:48:01;;;;;;;9.07;4.65;;;12.60;99.90;;;;;;4991751;28;20090;-21
2024/01/19 12:50:28;;;;;;;7.63;4.32;;;12.60;99.90;;;;;;4989655;28;20034;-20
2024/01/19 12:52:54;;;;;;;7.88;4.68;;;12.60;99.90;;;;;;4989656;28;20064;-20
2024/01/19 12:55:30;;;;;;;8.17;5.10;;;12.60;99.90;;;;;;4990852;28;21546;-20